GEC617 EDDP-KBOS
Flight info
| Callsign | GEC617 |
|---|---|
| Flight time | N/A |
| Altitude | 32000 |
| Route | ORTAG5E/08R ORTAG Q230 KUMER DCT TOLTA DCT ABAMI Z717 NEREL Z28 DIBIR DCT RAVLO Y70 OTBED DCT NISBI DCT DOPEK DCT ARTIX DCT MOGMO DCT MAMUL L60 PENIL UL70 BABRA M144 BAGSO DCT BEXET DCT DOGAL/M084F330 DCT 54N020W 53N030W 5130N04000W 50N050W DCT ELSIR/N0486F340 DCT TUSKY DCT EURRO OOSHN5 |
| Aircraft | B77L/H-SDE1E2E3FGHIJ2J3J4J5M1RWXY/LB1D1 |
Departure
| Time | 2026-05-07 19:40 |
|---|---|
| Airport | Leipzig/Halle Airport (EDDP) |
Arrival
| Time | N/A |
|---|---|
| Airport | Boston Logan International Airport (KBOS) |
| Time | Latitude | Longitude | Altitude | Speed | Heading |
|---|---|---|---|---|---|
| 2026-05-07 18:53 | 51.40890 | 12.23385 | 468 ft | 0 kts | 85° |
| 2026-05-07 19:26 | 51.40890 | 12.23379 | 468 ft | 2 kts | 85° |
| 2026-05-07 19:26 | 51.40888 | 12.23353 | 469 ft | 2 kts | 68° |
| 2026-05-07 19:27 | 51.40879 | 12.23330 | 469 ft | 2 kts | 50° |
| 2026-05-07 19:27 | 51.40868 | 12.23312 | 469 ft | 2 kts | 34° |
| 2026-05-07 19:27 | 51.40853 | 12.23300 | 469 ft | 2 kts | 17° |
| 2026-05-07 19:27 | 51.40837 | 12.23296 | 469 ft | 2 kts | 359° |
| 2026-05-07 19:28 | 51.40831 | 12.23296 | 469 ft | 0 kts | 355° |
| 2026-05-07 19:30 | 51.40838 | 12.23295 | 469 ft | 3 kts | 355° |
| 2026-05-07 19:30 | 51.40888 | 12.23288 | 470 ft | 10 kts | 356° |
| 2026-05-07 19:30 | 51.40968 | 12.23283 | 472 ft | 12 kts | 358° |
| 2026-05-07 19:31 | 51.41029 | 12.23208 | 474 ft | 12 kts | 273° |
| 2026-05-07 19:31 | 51.41023 | 12.23048 | 477 ft | 16 kts | 266° |
| 2026-05-07 19:31 | 51.41013 | 12.22829 | 478 ft | 21 kts | 265° |
| 2026-05-07 19:31 | 51.41003 | 12.22601 | 477 ft | 19 kts | 266° |
| 2026-05-07 19:32 | 51.40993 | 12.22388 | 472 ft | 17 kts | 274° |
| 2026-05-07 19:32 | 51.41063 | 12.22275 | 468 ft | 14 kts | 307° |
| 2026-05-07 19:32 | 51.41067 | 12.22107 | 464 ft | 15 kts | 265° |
| 2026-05-07 19:32 | 51.41058 | 12.21924 | 460 ft | 15 kts | 265° |
| 2026-05-07 19:33 | 51.41049 | 12.21738 | 455 ft | 16 kts | 265° |
| 2026-05-07 19:33 | 51.41041 | 12.21549 | 451 ft | 17 kts | 266° |
| 2026-05-07 19:33 | 51.41032 | 12.21350 | 445 ft | 18 kts | 265° |
| 2026-05-07 19:33 | 51.41022 | 12.21153 | 440 ft | 15 kts | 266° |
| 2026-05-07 19:34 | 51.41015 | 12.20981 | 437 ft | 15 kts | 265° |
| 2026-05-07 19:34 | 51.41006 | 12.20791 | 430 ft | 17 kts | 265° |
| 2026-05-07 19:34 | 51.40997 | 12.20610 | 428 ft | 11 kts | 265° |
| 2026-05-07 19:34 | 51.41005 | 12.20505 | 428 ft | 7 kts | 303° |
| 2026-05-07 19:35 | 51.41036 | 12.20481 | 427 ft | 0 kts | 8° |
| 2026-05-07 19:38 | 51.41054 | 12.20486 | 426 ft | 6 kts | 9° |
| 2026-05-07 19:38 | 51.41121 | 12.20507 | 425 ft | 10 kts | 11° |
| 2026-05-07 19:39 | 51.41165 | 12.20575 | 426 ft | 8 kts | 82° |
| 2026-05-07 19:39 | 51.41165 | 12.20580 | 426 ft | 0 kts | 86° |
| 2026-05-07 19:39 | 51.41166 | 12.20594 | 426 ft | 7 kts | 86° |
| 2026-05-07 19:40 | 51.41185 | 12.21022 | 435 ft | 74 kts | 85° |
| 2026-05-07 19:40 | 51.41244 | 12.22181 | 460 ft | 138 kts | 86° |
| 2026-05-07 19:40 | 51.41328 | 12.23978 | 522 ft | 189 kts | 83° |
| 2026-05-07 19:40 | 51.41431 | 12.26057 | 1383 ft | 185 kts | 84° |
| 2026-05-07 19:41 | 51.41518 | 12.28113 | 2087 ft | 189 kts | 83° |
| 2026-05-07 19:41 | 51.41619 | 12.30298 | 2474 ft | 205 kts | 83° |
| 2026-05-07 19:41 | 51.41726 | 12.32610 | 2893 ft | 220 kts | 83° |
| 2026-05-07 19:41 | 51.41842 | 12.35140 | 3399 ft | 233 kts | 83° |
| 2026-05-07 19:42 | 51.42060 | 12.37857 | 3957 ft | 246 kts | 70° |
| 2026-05-07 19:42 | 51.42873 | 12.40279 | 4545 ft | 254 kts | 46° |
| 2026-05-07 19:42 | 51.44276 | 12.41970 | 5325 ft | 256 kts | 23° |
| 2026-05-07 19:42 | 51.46005 | 12.42593 | 6040 ft | 261 kts | 359° |
| 2026-05-07 19:43 | 51.47780 | 12.42084 | 6817 ft | 264 kts | 344° |
| 2026-05-07 19:43 | 51.49538 | 12.41254 | 7571 ft | 268 kts | 344° |
| 2026-05-07 19:43 | 51.51310 | 12.40457 | 8296 ft | 272 kts | 345° |
| 2026-05-07 19:43 | 51.53066 | 12.39701 | 8985 ft | 276 kts | 345° |
| 2026-05-07 19:44 | 51.54904 | 12.38808 | 9661 ft | 280 kts | 334° |
| 2026-05-07 19:44 | 51.56419 | 12.37071 | 10293 ft | 284 kts | 314° |
| 2026-05-07 19:44 | 51.57649 | 12.34632 | 10695 ft | 298 kts | 304° |
| 2026-05-07 19:44 | 51.58631 | 12.31796 | 10903 ft | 318 kts | 294° |
| 2026-05-07 19:45 | 51.59334 | 12.28338 | 11246 ft | 336 kts | 284° |
| 2026-05-07 19:45 | 51.59975 | 12.24745 | 11635 ft | 350 kts | 291° |
| 2026-05-07 19:45 | 51.61037 | 12.21161 | 11988 ft | 366 kts | 301° |
| 2026-05-07 19:45 | 51.62485 | 12.17749 | 12400 ft | 380 kts | 306° |
| 2026-05-07 19:46 | 51.64006 | 12.14237 | 13173 ft | 384 kts | 305° |
| 2026-05-07 19:46 | 51.65415 | 12.10683 | 14019 ft | 385 kts | 298° |
| 2026-05-07 19:46 | 51.66491 | 12.06712 | 14754 ft | 390 kts | 289° |
| 2026-05-07 19:46 | 51.67162 | 12.02526 | 15416 ft | 397 kts | 281° |
| 2026-05-07 19:47 | 51.67532 | 11.98113 | 16113 ft | 402 kts | 276° |
| 2026-05-07 19:47 | 51.67659 | 11.93658 | 16921 ft | 404 kts | 271° |
| 2026-05-07 19:47 | 51.67616 | 11.89163 | 17660 ft | 406 kts | 269° |
| 2026-05-07 19:47 | 51.67442 | 11.84692 | 18349 ft | 410 kts | 266° |
| 2026-05-07 19:48 | 51.67155 | 11.80171 | 18992 ft | 415 kts | 264° |
| 2026-05-07 19:48 | 51.66795 | 11.75614 | 19550 ft | 421 kts | 263° |
| 2026-05-07 19:48 | 51.66379 | 11.71034 | 20179 ft | 425 kts | 262° |
| 2026-05-07 19:48 | 51.65937 | 11.66542 | 20798 ft | 428 kts | 262° |
| 2026-05-07 19:49 | 51.65454 | 11.61909 | 21422 ft | 431 kts | 261° |
| 2026-05-07 19:49 | 51.64946 | 11.57197 | 22076 ft | 434 kts | 261° |
| 2026-05-07 19:49 | 51.64433 | 11.52564 | 22670 ft | 437 kts | 261° |
| 2026-05-07 19:49 | 51.63907 | 11.47893 | 23179 ft | 442 kts | 261° |
| 2026-05-07 19:50 | 51.63357 | 11.43093 | 23685 ft | 446 kts | 261° |
| 2026-05-07 19:50 | 51.62796 | 11.38250 | 24232 ft | 450 kts | 260° |
| 2026-05-07 19:50 | 51.62237 | 11.33467 | 24772 ft | 453 kts | 260° |
| 2026-05-07 19:50 | 51.61689 | 11.28803 | 25273 ft | 456 kts | 259° |
| 2026-05-07 19:51 | 51.61115 | 11.23949 | 25802 ft | 459 kts | 259° |
| 2026-05-07 19:51 | 51.60522 | 11.18968 | 26280 ft | 463 kts | 259° |
| 2026-05-07 19:51 | 51.59937 | 11.14068 | 26731 ft | 467 kts | 259° |
| 2026-05-07 19:51 | 51.59341 | 11.09107 | 27225 ft | 470 kts | 259° |
| 2026-05-07 19:52 | 51.58755 | 11.04248 | 27693 ft | 473 kts | 259° |
| 2026-05-07 19:52 | 51.58122 | 10.99019 | 28180 ft | 477 kts | 259° |
| 2026-05-07 19:52 | 51.57486 | 10.93796 | 28677 ft | 480 kts | 259° |
| 2026-05-07 19:52 | 51.56842 | 10.88485 | 29154 ft | 484 kts | 261° |
| 2026-05-07 19:53 | 51.56496 | 10.82905 | 29685 ft | 485 kts | 270° |
| 2026-05-07 19:53 | 51.56675 | 10.77643 | 30365 ft | 482 kts | 278° |
| 2026-05-07 19:53 | 51.57322 | 10.72549 | 31145 ft | 478 kts | 287° |
| 2026-05-07 19:53 | 51.58326 | 10.67581 | 31740 ft | 474 kts | 289° |
| 2026-05-07 19:54 | 51.59444 | 10.62362 | 32042 ft | 477 kts | 289° |
| 2026-05-07 19:54 | 51.60511 | 10.57381 | 32062 ft | 477 kts | 289° |
| 2026-05-07 19:54 | 51.62636 | 10.47428 | 32048 ft | 475 kts | 289° |
| 2026-05-07 19:55 | 51.64817 | 10.37164 | 32057 ft | 476 kts | 290° |
| 2026-05-07 19:55 | 51.67062 | 10.26544 | 32069 ft | 475 kts | 289° |
| 2026-05-07 19:56 | 51.69259 | 10.16093 | 32071 ft | 476 kts | 289° |
| 2026-05-07 19:56 | 51.71366 | 10.06022 | 32096 ft | 475 kts | 289° |
| 2026-05-07 19:57 | 51.73503 | 9.95754 | 32068 ft | 475 kts | 289° |
| 2026-05-07 19:57 | 51.75634 | 9.85463 | 32077 ft | 477 kts | 289° |
| 2026-05-07 19:58 | 51.77774 | 9.75076 | 32063 ft | 477 kts | 289° |
| 2026-05-07 19:58 | 51.79836 | 9.65014 | 32057 ft | 475 kts | 289° |
| 2026-05-07 19:59 | 51.81910 | 9.54845 | 32076 ft | 476 kts | 289° |
| 2026-05-07 19:59 | 51.83955 | 9.44762 | 32061 ft | 476 kts | 289° |
| 2026-05-07 20:00 | 51.86053 | 9.34365 | 32079 ft | 477 kts | 288° |
| 2026-05-07 20:00 | 51.88051 | 9.24413 | 32086 ft | 477 kts | 288° |
| 2026-05-07 20:01 | 51.90063 | 9.14339 | 32076 ft | 477 kts | 288° |
| 2026-05-07 20:01 | 51.92133 | 9.03919 | 32078 ft | 477 kts | 288° |
| 2026-05-07 20:02 | 51.94197 | 8.93476 | 32090 ft | 476 kts | 288° |
| 2026-05-07 20:02 | 51.96250 | 8.83031 | 32088 ft | 475 kts | 288° |
| 2026-05-07 20:03 | 51.98290 | 8.72592 | 32088 ft | 476 kts | 288° |
| 2026-05-07 20:03 | 52.00294 | 8.62285 | 32086 ft | 476 kts | 288° |
| 2026-05-07 20:04 | 52.02258 | 8.52133 | 32087 ft | 476 kts | 287° |
| 2026-05-07 20:04 | 52.04244 | 8.41804 | 32089 ft | 476 kts | 288° |
| 2026-05-07 20:05 | 52.06223 | 8.31463 | 32089 ft | 475 kts | 287° |
| 2026-05-07 20:05 | 52.08262 | 8.20744 | 32093 ft | 476 kts | 287° |
| 2026-05-07 20:06 | 52.10254 | 8.10212 | 32095 ft | 475 kts | 286° |
| 2026-05-07 20:06 | 52.12226 | 7.99732 | 32087 ft | 474 kts | 286° |
| 2026-05-07 20:07 | 52.14131 | 7.89548 | 32102 ft | 476 kts | 286° |
| 2026-05-07 20:07 | 52.16049 | 7.79240 | 32111 ft | 476 kts | 286° |
| 2026-05-07 20:08 | 52.17933 | 7.69058 | 32117 ft | 476 kts | 286° |
| 2026-05-07 20:08 | 52.19831 | 7.58742 | 32115 ft | 477 kts | 286° |
| 2026-05-07 20:09 | 52.21707 | 7.48492 | 32107 ft | 476 kts | 286° |
| 2026-05-07 20:10 | 52.24531 | 7.32950 | 32095 ft | 476 kts | 285° |
| 2026-05-07 20:10 | 52.26388 | 7.22657 | 32111 ft | 476 kts | 285° |
| 2026-05-07 20:11 | 52.28328 | 7.11843 | 32091 ft | 476 kts | 285° |
| 2026-05-07 20:11 | 52.30255 | 7.01030 | 32101 ft | 476 kts | 285° |
| 2026-05-07 20:12 | 52.32134 | 6.90431 | 32094 ft | 475 kts | 285° |
| 2026-05-07 20:12 | 52.34015 | 6.79755 | 32097 ft | 477 kts | 285° |
| 2026-05-07 20:13 | 52.35868 | 6.69177 | 32086 ft | 477 kts | 285° |
| 2026-05-07 20:13 | 52.37656 | 6.58910 | 32095 ft | 477 kts | 285° |
| 2026-05-07 20:14 | 52.39368 | 6.49019 | 32097 ft | 476 kts | 285° |
| 2026-05-07 20:14 | 52.41239 | 6.38150 | 32096 ft | 477 kts | 285° |
| 2026-05-07 20:15 | 52.43042 | 6.27615 | 32087 ft | 477 kts | 284° |
| 2026-05-07 20:15 | 52.44835 | 6.17068 | 32093 ft | 477 kts | 284° |
| 2026-05-07 20:16 | 52.46635 | 6.06418 | 32100 ft | 478 kts | 284° |
| 2026-05-07 20:16 | 52.48444 | 5.95651 | 32104 ft | 477 kts | 284° |
| 2026-05-07 20:17 | 52.50255 | 5.84800 | 32116 ft | 477 kts | 284° |
| 2026-05-07 20:17 | 52.52053 | 5.73962 | 32124 ft | 479 kts | 284° |
| 2026-05-07 20:18 | 52.53843 | 5.63104 | 32096 ft | 476 kts | 284° |
| 2026-05-07 20:18 | 52.55587 | 5.52454 | 32097 ft | 479 kts | 284° |
| 2026-05-07 20:19 | 52.57352 | 5.41613 | 32096 ft | 479 kts | 284° |
| 2026-05-07 20:19 | 52.59116 | 5.30705 | 32095 ft | 477 kts | 283° |
| 2026-05-07 20:20 | 52.60896 | 5.19619 | 32100 ft | 480 kts | 283° |
| 2026-05-07 20:20 | 52.62668 | 5.08519 | 32099 ft | 478 kts | 283° |
| 2026-05-07 20:21 | 52.64403 | 4.97577 | 32101 ft | 479 kts | 283° |
| 2026-05-07 20:21 | 52.66126 | 4.86633 | 32102 ft | 480 kts | 283° |
| 2026-05-07 20:22 | 52.67852 | 4.75601 | 32111 ft | 481 kts | 283° |
| 2026-05-07 20:22 | 52.69604 | 4.64328 | 32107 ft | 479 kts | 283° |
| 2026-05-07 20:23 | 52.71337 | 4.53099 | 32109 ft | 482 kts | 283° |
| 2026-05-07 20:23 | 52.73026 | 4.42073 | 32109 ft | 482 kts | 283° |
| 2026-05-07 20:24 | 52.74700 | 4.31078 | 32109 ft | 482 kts | 283° |
| 2026-05-07 20:24 | 52.76409 | 4.19775 | 32108 ft | 481 kts | 283° |
| 2026-05-07 20:25 | 52.78062 | 4.08760 | 32109 ft | 483 kts | 283° |
| 2026-05-07 20:25 | 52.79732 | 3.97559 | 32108 ft | 483 kts | 283° |
| 2026-05-07 20:26 | 52.81361 | 3.86549 | 32109 ft | 482 kts | 283° |
| 2026-05-07 20:26 | 52.82951 | 3.75735 | 32109 ft | 482 kts | 283° |
| 2026-05-07 20:27 | 52.84538 | 3.64862 | 32105 ft | 483 kts | 282° |
| 2026-05-07 20:27 | 52.86131 | 3.53877 | 32099 ft | 483 kts | 283° |
| 2026-05-07 20:28 | 52.87709 | 3.42914 | 32097 ft | 485 kts | 282° |
| 2026-05-07 20:28 | 52.89290 | 3.31851 | 32098 ft | 484 kts | 282° |
| 2026-05-07 20:29 | 52.90847 | 3.20876 | 32096 ft | 480 kts | 282° |
| 2026-05-07 20:29 | 52.92332 | 3.10045 | 32096 ft | 482 kts | 281° |
| 2026-05-07 20:30 | 52.93800 | 2.98967 | 32097 ft | 483 kts | 281° |
| 2026-05-07 20:30 | 52.95267 | 2.87795 | 32097 ft | 484 kts | 281° |
| 2026-05-07 20:31 | 52.96713 | 2.76701 | 32093 ft | 482 kts | 281° |
| 2026-05-07 20:31 | 52.98127 | 2.65755 | 32100 ft | 485 kts | 281° |
| 2026-05-07 20:32 | 52.99549 | 2.54672 | 32097 ft | 481 kts | 281° |
| 2026-05-07 20:32 | 53.00946 | 2.43688 | 32094 ft | 483 kts | 281° |
| 2026-05-07 20:33 | 53.02345 | 2.32603 | 32097 ft | 482 kts | 280° |
| 2026-05-07 20:33 | 53.03657 | 2.22123 | 32093 ft | 483 kts | 280° |
| 2026-05-07 20:34 | 53.05057 | 2.10855 | 32090 ft | 481 kts | 280° |
| 2026-05-07 20:34 | 53.06396 | 1.99986 | 32085 ft | 482 kts | 280° |
| 2026-05-07 20:35 | 53.07798 | 1.88514 | 32091 ft | 484 kts | 280° |
| 2026-05-07 20:35 | 53.09140 | 1.77437 | 32091 ft | 481 kts | 280° |
| 2026-05-07 20:36 | 53.10470 | 1.66362 | 32089 ft | 483 kts | 280° |
| 2026-05-07 20:36 | 53.11805 | 1.55159 | 32084 ft | 483 kts | 280° |
| 2026-05-07 20:37 | 53.13110 | 1.44118 | 32086 ft | 482 kts | 280° |
| 2026-05-07 20:37 | 53.14401 | 1.33095 | 32089 ft | 481 kts | 279° |
| 2026-05-07 20:38 | 53.15678 | 1.22096 | 32088 ft | 482 kts | 279° |
| 2026-05-07 20:38 | 53.16931 | 1.11222 | 32089 ft | 481 kts | 279° |
| 2026-05-07 20:39 | 53.18182 | 1.00262 | 32091 ft | 480 kts | 279° |
| 2026-05-07 20:39 | 53.19420 | 0.89335 | 32085 ft | 480 kts | 279° |
| 2026-05-07 20:40 | 53.20640 | 0.78458 | 32086 ft | 482 kts | 279° |
| 2026-05-07 20:40 | 53.21864 | 0.67457 | 32075 ft | 478 kts | 279° |
| 2026-05-07 20:41 | 53.23066 | 0.56555 | 32067 ft | 479 kts | 279° |
| 2026-05-07 20:41 | 53.24263 | 0.45606 | 32065 ft | 479 kts | 279° |
| 2026-05-07 20:42 | 53.25446 | 0.34675 | 32065 ft | 480 kts | 278° |
| 2026-05-07 20:42 | 53.26658 | 0.23386 | 32067 ft | 476 kts | 278° |
| 2026-05-07 20:43 | 53.27832 | 0.12335 | 32072 ft | 479 kts | 278° |
| 2026-05-07 20:43 | 53.28980 | 0.01441 | 32073 ft | 475 kts | 278° |
| 2026-05-07 20:44 | 53.30134 | -0.09623 | 32071 ft | 475 kts | 278° |
| 2026-05-07 20:44 | 53.31263 | -0.20549 | 32070 ft | 475 kts | 278° |
| 2026-05-07 20:45 | 53.32383 | -0.31486 | 32064 ft | 476 kts | 278° |
| 2026-05-07 20:45 | 53.33488 | -0.42382 | 32064 ft | 475 kts | 278° |
| 2026-05-07 20:46 | 53.34591 | -0.53371 | 32059 ft | 475 kts | 278° |
| 2026-05-07 20:46 | 53.35672 | -0.64238 | 32058 ft | 475 kts | 278° |
| 2026-05-07 20:47 | 53.36794 | -0.75616 | 32063 ft | 475 kts | 277° |
| 2026-05-07 20:47 | 53.37855 | -0.86482 | 32037 ft | 474 kts | 277° |
| 2026-05-07 20:48 | 53.38934 | -0.97649 | 32034 ft | 480 kts | 277° |
| 2026-05-07 20:48 | 53.39978 | -1.08570 | 32024 ft | 475 kts | 277° |
| 2026-05-07 20:49 | 53.41030 | -1.19669 | 32020 ft | 473 kts | 277° |
| 2026-05-07 20:49 | 53.42044 | -1.30506 | 32018 ft | 472 kts | 277° |